sensor_id;sensor_type;location;lat;lon;timestamp;P1;durP1;ratioP1;P2;durP2;ratioP2
76788;SDS011;65740;52.464;13.446;2023-09-08T00:01:37;16.63;;;15.70;;
76788;SDS011;65740;52.464;13.446;2023-09-08T00:04:02;16.70;;;15.80;;
76788;SDS011;65740;52.464;13.446;2023-09-08T00:06:29;16.40;;;15.60;;
76788;SDS011;65740;52.464;13.446;2023-09-08T00:08:54;16.90;;;16.00;;
76788;SDS011;65740;52.464;13.446;2023-09-08T00:11:20;16.10;;;15.20;;
76788;SDS011;65740;52.464;13.446;2023-09-08T00:13:46;16.70;;;15.90;;
76788;SDS011;65740;52.464;13.446;2023-09-08T00:16:11;17.10;;;16.20;;
76788;SDS011;65740;52.464;13.446;2023-09-08T00:18:37;16.17;;;15.37;;
76788;SDS011;65740;52.464;13.446;2023-09-08T00:21:02;17.13;;;16.13;;
76788;SDS011;65740;52.464;13.446;2023-09-08T00:23:28;17.40;;;16.40;;
76788;SDS011;65740;52.464;13.446;2023-09-08T00:25:54;17.57;;;16.50;;
76788;SDS011;65740;52.464;13.446;2023-09-08T00:28:19;17.43;;;16.43;;
76788;SDS011;65740;52.464;13.446;2023-09-08T00:30:45;17.23;;;16.33;;
76788;SDS011;65740;52.464;13.446;2023-09-08T00:33:10;16.63;;;15.77;;
76788;SDS011;65740;52.464;13.446;2023-09-08T00:35:38;16.13;;;15.30;;
76788;SDS011;65740;52.464;13.446;2023-09-08T00:38:04;16.90;;;15.90;;
76788;SDS011;65740;52.464;13.446;2023-09-08T00:40:30;16.60;;;15.70;;
76788;SDS011;65740;52.464;13.446;2023-09-08T00:42:55;15.53;;;14.73;;
76788;SDS011;65740;52.464;13.446;2023-09-08T00:45:21;15.90;;;14.93;;
76788;SDS011;65740;52.464;13.446;2023-09-08T00:47:47;16.90;;;16.00;;
76788;SDS011;65740;52.464;13.446;2023-09-08T00:50:13;16.17;;;15.27;;
76788;SDS011;65740;52.464;13.446;2023-09-08T00:52:38;16.30;;;15.50;;
76788;SDS011;65740;52.464;13.446;2023-09-08T00:55:04;15.87;;;15.07;;
76788;SDS011;65740;52.464;13.446;2023-09-08T00:57:30;16.37;;;15.47;;
76788;SDS011;65740;52.464;13.446;2023-09-08T00:59:56;15.87;;;15.07;;
76788;SDS011;65740;52.464;13.446;2023-09-08T01:02:23;15.60;;;14.80;;
76788;SDS011;65740;52.464;13.446;2023-09-08T01:04:48;16.07;;;15.27;;
76788;SDS011;65740;52.464;13.446;2023-09-08T01:07:15;17.30;;;16.30;;
76788;SDS011;65740;52.464;13.446;2023-09-08T01:09:41;16.10;;;15.30;;
76788;SDS011;65740;52.464;13.446;2023-09-08T01:12:07;16.10;;;15.30;;
76788;SDS011;65740;52.464;13.446;2023-09-08T01:14:33;15.90;;;15.00;;
76788;SDS011;65740;52.464;13.446;2023-09-08T01:16:59;16.50;;;15.63;;
76788;SDS011;65740;52.464;13.446;2023-09-08T01:19:24;16.40;;;15.60;;
76788;SDS011;65740;52.464;13.446;2023-09-08T01:27:10;16.43;;;15.53;;
76788;SDS011;65740;52.464;13.446;2023-09-08T01:29:39;16.00;;;15.20;;
76788;SDS011;65740;52.464;13.446;2023-09-08T01:32:06;16.00;;;15.20;;
76788;SDS011;65740;52.464;13.446;2023-09-08T01:34:33;16.30;;;15.40;;
76788;SDS011;65740;52.464;13.446;2023-09-08T01:36:59;15.80;;;15.00;;
76788;SDS011;65740;52.464;13.446;2023-09-08T01:39:29;15.57;;;14.77;;
76788;SDS011;65740;52.464;13.446;2023-09-08T01:41:54;16.33;;;15.50;;
76788;SDS011;65740;52.464;13.446;2023-09-08T01:44:20;15.90;;;15.10;;
76788;SDS011;65740;52.464;13.446;2023-09-08T01:46:45;16.23;;;15.33;;
76788;SDS011;65740;52.464;13.446;2023-09-08T01:49:11;16.43;;;15.50;;
76788;SDS011;65740;52.464;13.446;2023-09-08T01:51:37;16.30;;;15.50;;
76788;SDS011;65740;52.464;13.446;2023-09-08T01:54:02;16.10;;;15.20;;
76788;SDS011;65740;52.464;13.446;2023-09-08T01:56:28;16.40;;;15.50;;
76788;SDS011;65740;52.464;13.446;2023-09-08T01:58:53;16.77;;;15.87;;
76788;SDS011;65740;52.464;13.446;2023-09-08T02:01:19;15.13;;;14.40;;
76788;SDS011;65740;52.464;13.446;2023-09-08T02:03:45;15.70;;;14.90;;
76788;SDS011;65740;52.464;13.446;2023-09-08T02:06:10;15.93;;;15.13;;
76788;SDS011;65740;52.464;13.446;2023-09-08T02:08:36;16.00;;;15.20;;
76788;SDS011;65740;52.464;13.446;2023-09-08T02:11:01;15.53;;;14.73;;
76788;SDS011;65740;52.464;13.446;2023-09-08T02:13:27;16.30;;;15.50;;
76788;SDS011;65740;52.464;13.446;2023-09-08T02:15:53;15.83;;;15.03;;
76788;SDS011;65740;52.464;13.446;2023-09-08T02:18:18;15.80;;;15.00;;
76788;SDS011;65740;52.464;13.446;2023-09-08T02:20:44;16.00;;;15.20;;
76788;SDS011;65740;52.464;13.446;2023-09-08T02:23:10;15.80;;;15.00;;
76788;SDS011;65740;52.464;13.446;2023-09-08T02:25:35;16.17;;;15.37;;
76788;SDS011;65740;52.464;13.446;2023-09-08T02:28:01;16.00;;;15.20;;
76788;SDS011;65740;52.464;13.446;2023-09-08T02:30:26;15.90;;;15.10;;
76788;SDS011;65740;52.464;13.446;2023-09-08T02:32:52;15.67;;;14.97;;
76788;SDS011;65740;52.464;13.446;2023-09-08T02:35:18;16.47;;;15.57;;
76788;SDS011;65740;52.464;13.446;2023-09-08T02:37:43;16.30;;;15.40;;
76788;SDS011;65740;52.464;13.446;2023-09-08T02:40:09;16.00;;;15.20;;
76788;SDS011;65740;52.464;13.446;2023-09-08T02:42:35;15.43;;;14.70;;
76788;SDS011;65740;52.464;13.446;2023-09-08T02:45:00;15.30;;;14.60;;
76788;SDS011;65740;52.464;13.446;2023-09-08T02:47:26;15.70;;;14.90;;
76788;SDS011;65740;52.464;13.446;2023-09-08T02:49:51;15.83;;;15.13;;
76788;SDS011;65740;52.464;13.446;2023-09-08T02:52:17;16.00;;;15.20;;
76788;SDS011;65740;52.464;13.446;2023-09-08T02:54:44;15.23;;;14.43;;
76788;SDS011;65740;52.464;13.446;2023-09-08T02:57:10;16.37;;;15.57;;
76788;SDS011;65740;52.464;13.446;2023-09-08T02:59:35;15.97;;;15.17;;
76788;SDS011;65740;52.464;13.446;2023-09-08T03:02:01;16.00;;;15.20;;
76788;SDS011;65740;52.464;13.446;2023-09-08T03:04:27;15.90;;;15.10;;
76788;SDS011;65740;52.464;13.446;2023-09-08T03:06:52;15.63;;;14.93;;
76788;SDS011;65740;52.464;13.446;2023-09-08T03:09:18;15.80;;;15.00;;
76788;SDS011;65740;52.464;13.446;2023-09-08T03:11:44;16.27;;;15.37;;
76788;SDS011;65740;52.464;13.446;2023-09-08T03:14:09;16.33;;;15.53;;
76788;SDS011;65740;52.464;13.446;2023-09-08T03:16:35;15.30;;;14.50;;
76788;SDS011;65740;52.464;13.446;2023-09-08T03:19:00;16.03;;;15.23;;
76788;SDS011;65740;52.464;13.446;2023-09-08T03:21:26;16.13;;;15.33;;
76788;SDS011;65740;52.464;13.446;2023-09-08T03:23:52;15.27;;;14.57;;
76788;SDS011;65740;52.464;13.446;2023-09-08T03:26:17;16.23;;;15.43;;
76788;SDS011;65740;52.464;13.446;2023-09-08T03:28:43;15.60;;;14.80;;
76788;SDS011;65740;52.464;13.446;2023-09-08T03:31:08;16.17;;;15.17;;
76788;SDS011;65740;52.464;13.446;2023-09-08T03:33:34;15.30;;;14.50;;
76788;SDS011;65740;52.464;13.446;2023-09-08T03:36:00;15.37;;;14.57;;
76788;SDS011;65740;52.464;13.446;2023-09-08T03:38:26;16.17;;;15.37;;
76788;SDS011;65740;52.464;13.446;2023-09-08T03:40:51;15.53;;;14.77;;
76788;SDS011;65740;52.464;13.446;2023-09-08T03:43:17;15.67;;;14.87;;
76788;SDS011;65740;52.464;13.446;2023-09-08T03:45:43;16.10;;;15.30;;
76788;SDS011;65740;52.464;13.446;2023-09-08T03:48:08;15.33;;;14.63;;
76788;SDS011;65740;52.464;13.446;2023-09-08T03:50:34;16.33;;;15.53;;
76788;SDS011;65740;52.464;13.446;2023-09-08T03:53:00;15.57;;;14.80;;
76788;SDS011;65740;52.464;13.446;2023-09-08T03:55:26;15.50;;;14.80;;
76788;SDS011;65740;52.464;13.446;2023-09-08T03:57:52;15.70;;;14.90;;
76788;SDS011;65740;52.464;13.446;2023-09-08T04:00:17;15.53;;;14.77;;
76788;SDS011;65740;52.464;13.446;2023-09-08T04:02:46;16.03;;;15.30;;
76788;SDS011;65740;52.464;13.446;2023-09-08T04:05:12;15.80;;;14.90;;
76788;SDS011;65740;52.464;13.446;2023-09-08T04:07:38;15.03;;;14.33;;
76788;SDS011;65740;52.464;13.446;2023-09-08T04:10:03;16.30;;;15.50;;
76788;SDS011;65740;52.464;13.446;2023-09-08T04:12:29;17.10;;;16.30;;
76788;SDS011;65740;52.464;13.446;2023-09-08T04:14:55;16.27;;;15.50;;
76788;SDS011;65740;52.464;13.446;2023-09-08T04:17:21;17.30;;;16.50;;
76788;SDS011;65740;52.464;13.446;2023-09-08T04:19:46;16.67;;;15.87;;
76788;SDS011;65740;52.464;13.446;2023-09-08T04:22:12;17.80;;;16.80;;
76788;SDS011;65740;52.464;13.446;2023-09-08T04:24:37;17.03;;;16.23;;
76788;SDS011;65740;52.464;13.446;2023-09-08T04:27:03;15.93;;;15.23;;
76788;SDS011;65740;52.464;13.446;2023-09-08T04:29:29;17.27;;;16.37;;
76788;SDS011;65740;52.464;13.446;2023-09-08T04:31:55;17.70;;;16.80;;
76788;SDS011;65740;52.464;13.446;2023-09-08T04:34:20;16.77;;;16.03;;
76788;SDS011;65740;52.464;13.446;2023-09-08T04:36:46;16.57;;;15.70;;
76788;SDS011;65740;52.464;13.446;2023-09-08T04:39:11;17.87;;;16.97;;
76788;SDS011;65740;52.464;13.446;2023-09-08T04:41:37;17.93;;;17.03;;
76788;SDS011;65740;52.464;13.446;2023-09-08T04:44:03;17.73;;;16.80;;
76788;SDS011;65740;52.464;13.446;2023-09-08T04:46:30;16.13;;;15.43;;
76788;SDS011;65740;52.464;13.446;2023-09-08T04:48:55;17.33;;;16.53;;
76788;SDS011;65740;52.464;13.446;2023-09-08T04:51:21;17.17;;;16.27;;
76788;SDS011;65740;52.464;13.446;2023-09-08T04:53:47;16.83;;;16.03;;
76788;SDS011;65740;52.464;13.446;2023-09-08T04:56:13;16.67;;;15.87;;
76788;SDS011;65740;52.464;13.446;2023-09-08T04:58:38;17.03;;;16.13;;
76788;SDS011;65740;52.464;13.446;2023-09-08T05:01:04;17.40;;;16.60;;
76788;SDS011;65740;52.464;13.446;2023-09-08T05:03:30;17.33;;;16.53;;
76788;SDS011;65740;52.464;13.446;2023-09-08T05:05:56;17.00;;;16.20;;
76788;SDS011;65740;52.464;13.446;2023-09-08T05:08:22;17.10;;;16.40;;
76788;SDS011;65740;52.464;13.446;2023-09-08T05:10:47;17.23;;;16.43;;
76788;SDS011;65740;52.464;13.446;2023-09-08T05:13:13;17.17;;;16.37;;
76788;SDS011;65740;52.464;13.446;2023-09-08T05:15:40;17.83;;;17.03;;
76788;SDS011;65740;52.464;13.446;2023-09-08T05:18:07;17.77;;;16.87;;
76788;SDS011;65740;52.464;13.446;2023-09-08T05:20:33;17.20;;;16.40;;
76788;SDS011;65740;52.464;13.446;2023-09-08T05:22:58;17.50;;;16.70;;
76788;SDS011;65740;52.464;13.446;2023-09-08T05:25:24;17.20;;;16.40;;
76788;SDS011;65740;52.464;13.446;2023-09-08T05:27:49;16.97;;;16.17;;
76788;SDS011;65740;52.464;13.446;2023-09-08T05:30:15;17.00;;;16.20;;
76788;SDS011;65740;52.464;13.446;2023-09-08T05:32:41;18.07;;;17.27;;
76788;SDS011;65740;52.464;13.446;2023-09-08T05:35:06;16.87;;;16.07;;
76788;SDS011;65740;52.464;13.446;2023-09-08T05:37:32;17.47;;;16.67;;
76788;SDS011;65740;52.464;13.446;2023-09-08T05:39:58;18.07;;;17.17;;
76788;SDS011;65740;52.464;13.446;2023-09-08T05:42:23;17.07;;;16.27;;
76788;SDS011;65740;52.464;13.446;2023-09-08T05:44:49;17.73;;;16.83;;
76788;SDS011;65740;52.464;13.446;2023-09-08T05:47:14;17.70;;;16.83;;
76788;SDS011;65740;52.464;13.446;2023-09-08T05:49:40;17.47;;;16.67;;
76788;SDS011;65740;52.464;13.446;2023-09-08T05:52:05;17.30;;;16.50;;
76788;SDS011;65740;52.464;13.446;2023-09-08T05:54:31;18.20;;;17.30;;
76788;SDS011;65740;52.464;13.446;2023-09-08T05:56:57;17.40;;;16.60;;
76788;SDS011;65740;52.464;13.446;2023-09-08T05:59:22;18.43;;;17.53;;
76788;SDS011;65740;52.464;13.446;2023-09-08T06:01:48;18.30;;;17.40;;
76788;SDS011;65740;52.464;13.446;2023-09-08T06:04:13;16.87;;;16.07;;
76788;SDS011;65740;52.464;13.446;2023-09-08T06:06:39;17.67;;;16.87;;
76788;SDS011;65740;52.464;13.446;2023-09-08T06:09:05;17.50;;;16.60;;
76788;SDS011;65740;52.464;13.446;2023-09-08T06:11:32;17.73;;;16.93;;
76788;SDS011;65740;52.464;13.446;2023-09-08T06:13:58;17.57;;;16.77;;
76788;SDS011;65740;52.464;13.446;2023-09-08T06:16:24;17.63;;;16.73;;
76788;SDS011;65740;52.464;13.446;2023-09-08T06:18:50;17.27;;;16.40;;
76788;SDS011;65740;52.464;13.446;2023-09-08T06:21:16;17.90;;;17.00;;
76788;SDS011;65740;52.464;13.446;2023-09-08T06:23:42;18.10;;;17.20;;
76788;SDS011;65740;52.464;13.446;2023-09-08T06:26:07;17.57;;;16.63;;
76788;SDS011;65740;52.464;13.446;2023-09-08T06:28:33;17.80;;;16.90;;
76788;SDS011;65740;52.464;13.446;2023-09-08T06:30:58;16.90;;;16.10;;
76788;SDS011;65740;52.464;13.446;2023-09-08T06:33:24;18.27;;;17.37;;
76788;SDS011;65740;52.464;13.446;2023-09-08T06:35:50;17.03;;;16.23;;
76788;SDS011;65740;52.464;13.446;2023-09-08T06:38:16;17.03;;;16.23;;
76788;SDS011;65740;52.464;13.446;2023-09-08T06:40:42;18.30;;;17.40;;
76788;SDS011;65740;52.464;13.446;2023-09-08T06:43:07;16.97;;;16.17;;
76788;SDS011;65740;52.464;13.446;2023-09-08T06:45:33;17.43;;;16.57;;
76788;SDS011;65740;52.464;13.446;2023-09-08T06:47:58;17.47;;;16.67;;
76788;SDS011;65740;52.464;13.446;2023-09-08T06:50:25;17.60;;;16.80;;
76788;SDS011;65740;52.464;13.446;2023-09-08T06:52:51;16.93;;;16.13;;
76788;SDS011;65740;52.464;13.446;2023-09-08T06:55:17;16.40;;;15.50;;
76788;SDS011;65740;52.464;13.446;2023-09-08T06:57:43;17.07;;;16.17;;
76788;SDS011;65740;52.464;13.446;2023-09-08T07:00:09;17.80;;;16.90;;
76788;SDS011;65740;52.464;13.446;2023-09-08T07:02:39;17.60;;;16.70;;
76788;SDS011;65740;52.464;13.446;2023-09-08T07:05:05;17.80;;;16.90;;
76788;SDS011;65740;52.464;13.446;2023-09-08T07:07:34;17.50;;;16.60;;
76788;SDS011;65740;52.464;13.446;2023-09-08T07:10:00;16.53;;;15.80;;
76788;SDS011;65740;52.464;13.446;2023-09-08T07:12:27;17.10;;;16.30;;
76788;SDS011;65740;52.464;13.446;2023-09-08T07:14:53;17.03;;;16.23;;
76788;SDS011;65740;52.464;13.446;2023-09-08T07:17:19;16.50;;;15.70;;
76788;SDS011;65740;52.464;13.446;2023-09-08T07:19:44;16.77;;;15.93;;
76788;SDS011;65740;52.464;13.446;2023-09-08T07:22:10;16.80;;;16.00;;
76788;SDS011;65740;52.464;13.446;2023-09-08T07:24:35;16.43;;;15.60;;
76788;SDS011;65740;52.464;13.446;2023-09-08T07:27:01;18.17;;;17.17;;
76788;SDS011;65740;52.464;13.446;2023-09-08T07:29:27;18.60;;;17.70;;
76788;SDS011;65740;52.464;13.446;2023-09-08T07:31:53;18.70;;;17.50;;
76788;SDS011;65740;52.464;13.446;2023-09-08T07:34:18;20.10;;;18.80;;
76788;SDS011;65740;52.464;13.446;2023-09-08T07:36:44;19.50;;;18.30;;
76788;SDS011;65740;52.464;13.446;2023-09-08T07:39:09;19.80;;;18.60;;
76788;SDS011;65740;52.464;13.446;2023-09-08T07:41:35;19.90;;;18.80;;
76788;SDS011;65740;52.464;13.446;2023-09-08T07:44:04;19.90;;;18.50;;
76788;SDS011;65740;52.464;13.446;2023-09-08T07:46:30;19.70;;;18.43;;
76788;SDS011;65740;52.464;13.446;2023-09-08T07:48:57;20.13;;;19.03;;
76788;SDS011;65740;52.464;13.446;2023-09-08T07:51:23;19.97;;;18.87;;
76788;SDS011;65740;52.464;13.446;2023-09-08T07:53:49;19.70;;;18.60;;
76788;SDS011;65740;52.464;13.446;2023-09-08T07:56:15;21.07;;;19.77;;
76788;SDS011;65740;52.464;13.446;2023-09-08T07:58:41;20.93;;;19.73;;
76788;SDS011;65740;52.464;13.446;2023-09-08T08:01:06;19.63;;;18.53;;
76788;SDS011;65740;52.464;13.446;2023-09-08T08:03:32;20.50;;;19.30;;
76788;SDS011;65740;52.464;13.446;2023-09-08T08:05:59;21.90;;;20.30;;
76788;SDS011;65740;52.464;13.446;2023-09-08T08:08:25;21.00;;;19.60;;
76788;SDS011;65740;52.464;13.446;2023-09-08T08:10:51;20.07;;;18.47;;
76788;SDS011;65740;52.464;13.446;2023-09-08T08:13:16;20.27;;;19.07;;
76788;SDS011;65740;52.464;13.446;2023-09-08T08:15:42;21.37;;;20.07;;
76788;SDS011;65740;52.464;13.446;2023-09-08T08:18:10;21.33;;;19.77;;
76788;SDS011;65740;52.464;13.446;2023-09-08T08:20:36;22.73;;;21.07;;
76788;SDS011;65740;52.464;13.446;2023-09-08T08:23:02;21.57;;;19.97;;
76788;SDS011;65740;52.464;13.446;2023-09-08T08:25:32;21.47;;;19.93;;
76788;SDS011;65740;52.464;13.446;2023-09-08T08:27:58;20.40;;;19.17;;
76788;SDS011;65740;52.464;13.446;2023-09-08T08:30:25;20.00;;;18.27;;
76788;SDS011;65740;52.464;13.446;2023-09-08T08:32:51;21.53;;;20.20;;
76788;SDS011;65740;52.464;13.446;2023-09-08T08:35:18;20.77;;;18.97;;
76788;SDS011;65740;52.464;13.446;2023-09-08T08:37:44;22.03;;;20.63;;
76788;SDS011;65740;52.464;13.446;2023-09-08T08:40:10;22.53;;;20.60;;
76788;SDS011;65740;52.464;13.446;2023-09-08T08:42:37;21.37;;;19.83;;
76788;SDS011;65740;52.464;13.446;2023-09-08T08:45:04;21.73;;;20.47;;
76788;SDS011;65740;52.464;13.446;2023-09-08T08:47:30;21.80;;;20.40;;
76788;SDS011;65740;52.464;13.446;2023-09-08T08:49:57;22.70;;;20.80;;
76788;SDS011;65740;52.464;13.446;2023-09-08T08:52:25;22.73;;;21.23;;
76788;SDS011;65740;52.464;13.446;2023-09-08T08:54:54;22.30;;;20.87;;
76788;SDS011;65740;52.464;13.446;2023-09-08T08:57:20;21.33;;;19.87;;
76788;SDS011;65740;52.464;13.446;2023-09-08T08:59:47;23.07;;;21.27;;
76788;SDS011;65740;52.464;13.446;2023-09-08T09:02:16;22.13;;;20.20;;
76788;SDS011;65740;52.464;13.446;2023-09-08T09:04:43;23.10;;;21.13;;
76788;SDS011;65740;52.464;13.446;2023-09-08T09:07:10;23.80;;;22.17;;
76788;SDS011;65740;52.464;13.446;2023-09-08T09:09:37;23.40;;;21.90;;
76788;SDS011;65740;52.464;13.446;2023-09-08T09:12:04;22.50;;;20.80;;
76788;SDS011;65740;52.464;13.446;2023-09-08T09:14:33;22.00;;;20.60;;
76788;SDS011;65740;52.464;13.446;2023-09-08T09:16:59;21.20;;;20.00;;
76788;SDS011;65740;52.464;13.446;2023-09-08T09:19:26;21.77;;;20.37;;
76788;SDS011;65740;52.464;13.446;2023-09-08T09:21:57;22.23;;;20.93;;
76788;SDS011;65740;52.464;13.446;2023-09-08T09:26:59;22.33;;;20.70;;
76788;SDS011;65740;52.464;13.446;2023-09-08T09:29:26;23.13;;;20.87;;
76788;SDS011;65740;52.464;13.446;2023-09-08T09:31:54;22.43;;;21.03;;
76788;SDS011;65740;52.464;13.446;2023-09-08T09:34:27;22.03;;;20.63;;
76788;SDS011;65740;52.464;13.446;2023-09-08T09:36:53;21.27;;;19.70;;
76788;SDS011;65740;52.464;13.446;2023-09-08T09:39:19;21.87;;;20.57;;
76788;SDS011;65740;52.464;13.446;2023-09-08T09:41:49;21.53;;;19.93;;
76788;SDS011;65740;52.464;13.446;2023-09-08T09:44:19;21.67;;;20.27;;
76788;SDS011;65740;52.464;13.446;2023-09-08T09:46:46;21.63;;;20.40;;
76788;SDS011;65740;52.464;13.446;2023-09-08T09:49:12;21.20;;;19.90;;
76788;SDS011;65740;52.464;13.446;2023-09-08T09:51:44;21.57;;;20.17;;
76788;SDS011;65740;52.464;13.446;2023-09-08T09:54:12;21.27;;;20.00;;
76788;SDS011;65740;52.464;13.446;2023-09-08T09:56:39;21.03;;;19.70;;
76788;SDS011;65740;52.464;13.446;2023-09-08T09:59:08;22.47;;;21.00;;
76788;SDS011;65740;52.464;13.446;2023-09-08T10:01:35;21.63;;;20.23;;
76788;SDS011;65740;52.464;13.446;2023-09-08T10:04:02;21.50;;;20.30;;
76788;SDS011;65740;52.464;13.446;2023-09-08T10:06:33;22.17;;;20.57;;
76788;SDS011;65740;52.464;13.446;2023-09-08T10:09:01;21.40;;;20.00;;
76788;SDS011;65740;52.464;13.446;2023-09-08T10:11:33;21.63;;;20.27;;
76788;SDS011;65740;52.464;13.446;2023-09-08T10:14:02;21.10;;;19.70;;
76788;SDS011;65740;52.464;13.446;2023-09-08T10:16:28;22.50;;;21.00;;
76788;SDS011;65740;52.464;13.446;2023-09-08T10:18:58;20.20;;;19.00;;
76788;SDS011;65740;52.464;13.446;2023-09-08T10:21:28;20.60;;;19.30;;
76788;SDS011;65740;52.464;13.446;2023-09-08T10:24:37;20.20;;;18.67;;
76788;SDS011;65740;52.464;13.446;2023-09-08T10:26:51;20.73;;;19.37;;
76788;SDS011;65740;52.464;13.446;2023-09-08T10:29:23;21.20;;;19.70;;
76788;SDS011;65740;52.464;13.446;2023-09-08T10:31:51;21.20;;;19.57;;
76788;SDS011;65740;52.464;13.446;2023-09-08T10:34:19;20.80;;;19.60;;
76788;SDS011;65740;52.464;13.446;2023-09-08T10:36:45;21.57;;;20.20;;
76788;SDS011;65740;52.464;13.446;2023-09-08T10:39:30;21.87;;;20.47;;
76788;SDS011;65740;52.464;13.446;2023-09-08T10:47:19;21.63;;;20.13;;
76788;SDS011;65740;52.464;13.446;2023-09-08T10:49:49;21.27;;;19.80;;
76788;SDS011;65740;52.464;13.446;2023-09-08T10:52:18;21.10;;;19.50;;
76788;SDS011;65740;52.464;13.446;2023-09-08T10:54:50;21.20;;;19.90;;
76788;SDS011;65740;52.464;13.446;2023-09-08T10:57:18;21.80;;;20.20;;
76788;SDS011;65740;52.464;13.446;2023-09-08T11:00:00;20.93;;;19.63;;
76788;SDS011;65740;52.464;13.446;2023-09-08T11:02:37;20.93;;;19.40;;
76788;SDS011;65740;52.464;13.446;2023-09-08T11:05:06;21.23;;;19.83;;
76788;SDS011;65740;52.464;13.446;2023-09-08T11:07:36;21.47;;;20.27;;
76788;SDS011;65740;52.464;13.446;2023-09-08T11:10:03;22.00;;;20.50;;
76788;SDS011;65740;52.464;13.446;2023-09-08T11:12:30;22.67;;;21.00;;
76788;SDS011;65740;52.464;13.446;2023-09-08T11:14:56;22.20;;;20.70;;
76788;SDS011;65740;52.464;13.446;2023-09-08T11:17:26;22.63;;;20.93;;
76788;SDS011;65740;52.464;13.446;2023-09-08T11:19:53;21.90;;;20.50;;
76788;SDS011;65740;52.464;13.446;2023-09-08T11:22:21;22.43;;;20.73;;
76788;SDS011;65740;52.464;13.446;2023-09-08T11:24:49;22.23;;;20.67;;
76788;SDS011;65740;52.464;13.446;2023-09-08T11:27:16;26.60;;;23.70;;
76788;SDS011;65740;52.464;13.446;2023-09-08T11:29:43;31.70;;;26.00;;
76788;SDS011;65740;52.464;13.446;2023-09-08T11:32:12;27.03;;;24.33;;
76788;SDS011;65740;52.464;13.446;2023-09-08T11:34:38;34.53;;;28.40;;
76788;SDS011;65740;52.464;13.446;2023-09-08T11:37:12;35.27;;;30.60;;
76788;SDS011;65740;52.464;13.446;2023-09-08T11:39:39;42.20;;;30.03;;
76788;SDS011;65740;52.464;13.446;2023-09-08T11:42:07;37.50;;;28.13;;
76788;SDS011;65740;52.464;13.446;2023-09-08T11:44:36;36.50;;;29.27;;
76788;SDS011;65740;52.464;13.446;2023-09-08T11:47:03;37.07;;;30.03;;
76788;SDS011;65740;52.464;13.446;2023-09-08T11:49:34;35.00;;;28.90;;
76788;SDS011;65740;52.464;13.446;2023-09-08T11:52:01;36.33;;;27.90;;
76788;SDS011;65740;52.464;13.446;2023-09-08T11:54:28;28.70;;;25.90;;
76788;SDS011;65740;52.464;13.446;2023-09-08T11:56:56;26.33;;;24.03;;
76788;SDS011;65740;52.464;13.446;2023-09-08T11:59:23;28.00;;;25.10;;
76788;SDS011;65740;52.464;13.446;2023-09-08T12:01:49;27.80;;;25.00;;
76788;SDS011;65740;52.464;13.446;2023-09-08T12:04:19;26.87;;;24.33;;
76788;SDS011;65740;52.464;13.446;2023-09-08T12:06:45;26.87;;;24.27;;
76788;SDS011;65740;52.464;13.446;2023-09-08T12:09:12;24.63;;;22.23;;
76788;SDS011;65740;52.464;13.446;2023-09-08T12:11:38;24.80;;;22.50;;
76788;SDS011;65740;52.464;13.446;2023-09-08T12:14:08;22.60;;;20.90;;
76788;SDS011;65740;52.464;13.446;2023-09-08T12:16:35;22.97;;;21.17;;
76788;SDS011;65740;52.464;13.446;2023-09-08T12:19:00;23.17;;;21.27;;
76788;SDS011;65740;52.464;13.446;2023-09-08T12:21:26;22.47;;;20.57;;
76788;SDS011;65740;52.464;13.446;2023-09-08T12:23:53;22.97;;;21.27;;
76788;SDS011;65740;52.464;13.446;2023-09-08T12:26:19;21.90;;;20.50;;
76788;SDS011;65740;52.464;13.446;2023-09-08T12:28:45;22.30;;;20.53;;
76788;SDS011;65740;52.464;13.446;2023-09-08T12:31:15;20.93;;;19.30;;
76788;SDS011;65740;52.464;13.446;2023-09-08T12:33:44;20.73;;;19.43;;
76788;SDS011;65740;52.464;13.446;2023-09-08T12:36:15;20.47;;;19.20;;
76788;SDS011;65740;52.464;13.446;2023-09-08T12:38:46;20.50;;;19.00;;
76788;SDS011;65740;52.464;13.446;2023-09-08T12:41:13;20.70;;;19.43;;
76788;SDS011;65740;52.464;13.446;2023-09-08T12:43:38;19.80;;;18.70;;
76788;SDS011;65740;52.464;13.446;2023-09-08T12:46:04;20.70;;;19.33;;
76788;SDS011;65740;52.464;13.446;2023-09-08T12:48:29;19.67;;;18.23;;
76788;SDS011;65740;52.464;13.446;2023-09-08T12:50:55;20.60;;;19.00;;
76788;SDS011;65740;52.464;13.446;2023-09-08T12:53:21;21.40;;;19.60;;
76788;SDS011;65740;52.464;13.446;2023-09-08T12:55:48;21.00;;;19.57;;
76788;SDS011;65740;52.464;13.446;2023-09-08T12:58:14;21.23;;;19.40;;
76788;SDS011;65740;52.464;13.446;2023-09-08T13:00:40;20.20;;;18.80;;
76788;SDS011;65740;52.464;13.446;2023-09-08T13:03:06;20.93;;;19.53;;
76788;SDS011;65740;52.464;13.446;2023-09-08T13:05:31;20.43;;;19.00;;
76788;SDS011;65740;52.464;13.446;2023-09-08T13:07:57;19.63;;;18.33;;
76788;SDS011;65740;52.464;13.446;2023-09-08T13:10:23;19.50;;;18.40;;
76788;SDS011;65740;52.464;13.446;2023-09-08T13:12:49;19.90;;;18.70;;
76788;SDS011;65740;52.464;13.446;2023-09-08T13:15:14;19.67;;;18.47;;
76788;SDS011;65740;52.464;13.446;2023-09-08T13:17:40;19.70;;;18.50;;
76788;SDS011;65740;52.464;13.446;2023-09-08T13:20:07;20.20;;;18.90;;
76788;SDS011;65740;52.464;13.446;2023-09-08T13:22:33;19.83;;;18.47;;
76788;SDS011;65740;52.464;13.446;2023-09-08T13:24:59;20.30;;;18.90;;
76788;SDS011;65740;52.464;13.446;2023-09-08T13:27:25;19.10;;;17.90;;
76788;SDS011;65740;52.464;13.446;2023-09-08T13:29:53;20.10;;;18.90;;
76788;SDS011;65740;52.464;13.446;2023-09-08T13:32:19;19.30;;;17.90;;
76788;SDS011;65740;52.464;13.446;2023-09-08T13:34:44;19.53;;;18.43;;
76788;SDS011;65740;52.464;13.446;2023-09-08T13:37:12;19.77;;;18.60;;
76788;SDS011;65740;52.464;13.446;2023-09-08T13:39:38;20.07;;;18.87;;
76788;SDS011;65740;52.464;13.446;2023-09-08T13:42:04;18.93;;;17.80;;
76788;SDS011;65740;52.464;13.446;2023-09-08T13:44:30;19.80;;;18.43;;
76788;SDS011;65740;52.464;13.446;2023-09-08T13:46:56;19.47;;;18.27;;
76788;SDS011;65740;52.464;13.446;2023-09-08T13:49:22;19.30;;;18.20;;
76788;SDS011;65740;52.464;13.446;2023-09-08T13:51:48;18.87;;;17.73;;
76788;SDS011;65740;52.464;13.446;2023-09-08T13:54:16;20.50;;;19.07;;
76788;SDS011;65740;52.464;13.446;2023-09-08T13:56:42;18.70;;;17.70;;
76788;SDS011;65740;52.464;13.446;2023-09-08T13:59:08;19.20;;;17.80;;
76788;SDS011;65740;52.464;13.446;2023-09-08T14:01:34;20.07;;;18.87;;
76788;SDS011;65740;52.464;13.446;2023-09-08T14:04:02;19.27;;;18.23;;
76788;SDS011;65740;52.464;13.446;2023-09-08T14:06:28;19.60;;;18.50;;
76788;SDS011;65740;52.464;13.446;2023-09-08T14:08:54;19.90;;;18.70;;
76788;SDS011;65740;52.464;13.446;2023-09-08T14:11:21;21.00;;;19.50;;
76788;SDS011;65740;52.464;13.446;2023-09-08T14:13:47;19.83;;;18.53;;
76788;SDS011;65740;52.464;13.446;2023-09-08T14:16:13;20.47;;;18.97;;
76788;SDS011;65740;52.464;13.446;2023-09-08T14:18:39;19.53;;;18.33;;